createdAt,value
2018-01-01T00:01:23.198Z,96775.95
2018-01-01T00:03:50.735Z,96777.17
2018-01-01T00:06:24.473Z,96776.03
2018-01-01T00:08:52.050Z,96780.59
2018-01-01T00:11:19.628Z,96787.87
2018-01-01T00:13:47.268Z,96786.68
2018-01-01T00:16:14.842Z,96794.86
2018-01-01T00:18:42.413Z,96801.44
2018-01-01T00:21:10.935Z,96812.38
2018-01-01T00:23:38.572Z,96823.16
2018-01-01T00:26:08.972Z,96826.76
2018-01-01T00:28:36.688Z,96825.20
2018-01-01T00:31:04.205Z,96838.02
2018-01-01T00:33:31.822Z,96839.31
2018-01-01T00:35:59.431Z,96841.49
2018-01-01T00:38:27.036Z,96842.05
2018-01-01T00:40:56.203Z,96842.25
2018-01-01T00:43:46.930Z,96853.00
2018-01-01T00:46:19.777Z,96862.42
2018-01-01T00:48:47.446Z,96863.50
2018-01-01T00:51:14.998Z,96867.50
2018-01-01T00:53:42.579Z,96879.06
2018-01-01T00:56:11.439Z,96898.83
2018-01-01T00:58:39.099Z,96903.25
2018-01-01T01:01:06.644Z,96913.45
2018-01-01T01:03:34.226Z,96915.50
2018-01-01T01:06:02.096Z,96907.74
2018-01-01T01:08:34.104Z,96918.35
2018-01-01T01:11:01.652Z,96920.84
2018-01-01T01:13:29.183Z,96917.30
2018-01-01T01:15:56.646Z,96917.07
2018-01-01T01:18:24.130Z,96911.55
2018-01-01T01:20:51.651Z,96919.25
2018-01-01T01:23:19.153Z,96923.67
2018-01-01T01:25:46.730Z,96928.66
2018-01-01T01:28:14.381Z,96940.93
2018-01-01T01:30:42.758Z,96939.78
2018-01-01T01:33:11.015Z,96930.02
2018-01-01T01:35:38.673Z,96938.81
2018-01-01T01:38:06.234Z,96935.09
2018-01-01T01:40:34.144Z,96940.24
2018-01-01T01:43:01.715Z,96939.66
2018-01-01T01:45:29.517Z,96945.86
2018-01-01T01:47:57.424Z,96936.78
2018-01-01T01:50:25.296Z,96933.41
2018-01-01T01:52:53.674Z,96926.39
2018-01-01T01:55:21.550Z,96927.79
2018-01-01T01:57:49.559Z,96923.31
2018-01-01T02:00:18.552Z,96927.66
2018-01-01T02:02:46.520Z,96926.69
2018-01-01T02:05:15.414Z,96926.70
2018-01-01T02:07:44.360Z,96928.92
2018-01-01T02:10:14.454Z,96943.16
2018-01-01T02:12:42.629Z,96935.25
2018-01-01T02:15:10.966Z,96938.30
2018-01-01T02:17:38.586Z,96931.59
2018-01-01T02:20:06.482Z,96923.14
2018-01-01T02:22:35.037Z,96928.94
2018-01-01T02:25:02.576Z,96925.31
2018-01-01T02:27:30.174Z,96920.94
2018-01-01T02:30:00.517Z,96908.56
2018-01-01T02:32:32.929Z,96925.81
2018-01-01T02:35:00.589Z,96933.00
2018-01-01T02:37:36.944Z,96937.31
2018-01-01T02:40:07.461Z,96941.33
2018-01-01T02:42:39.127Z,96957.41
2018-01-01T02:45:08.034Z,96952.41
2018-01-01T02:47:35.790Z,96948.35
2018-01-01T02:50:03.610Z,96957.41
2018-01-01T02:52:31.234Z,96961.38
2018-01-01T02:54:59.005Z,96956.71
2018-01-01T02:57:27.480Z,96966.16
2018-01-01T02:59:55.180Z,96959.74
2018-01-01T03:02:24.821Z,96966.59
2018-01-01T03:04:52.660Z,96974.23
2018-01-01T03:07:20.445Z,96981.55
2018-01-01T03:09:48.798Z,96975.92
2018-01-01T03:12:17.422Z,96970.43
2018-01-01T03:14:45.600Z,96971.41
2018-01-01T03:17:13.205Z,96960.80
2018-01-01T03:19:41.155Z,96965.55
2018-01-01T03:22:08.910Z,96968.08
2018-01-01T03:24:38.288Z,96968.63
2018-01-01T03:27:09.409Z,96965.14
2018-01-01T03:29:37.246Z,96974.70
2018-01-01T03:32:05.940Z,96978.38
2018-01-01T03:34:33.473Z,96965.60
2018-01-01T03:37:01.115Z,96960.97
2018-01-01T03:39:28.992Z,96977.55
2018-01-01T03:41:56.868Z,96957.34
2018-01-01T03:44:24.601Z,96939.70
2018-01-01T03:46:52.182Z,96955.50
2018-01-01T03:49:19.968Z,96951.89
2018-01-01T03:51:48.578Z,96968.26
2018-01-01T03:54:17.257Z,96979.36
2018-01-01T03:56:44.855Z,96970.80
2018-01-01T03:59:12.553Z,96981.47
2018-01-01T04:01:40.326Z,96987.92
2018-01-01T04:04:07.877Z,96986.25
2018-01-01T04:06:35.514Z,96996.91
2018-01-01T04:09:09.766Z,96985.72
2018-01-01T04:11:40.810Z,96982.53
2018-01-01T04:14:08.450Z,96993.55
2018-01-01T04:16:36.857Z,96988.39
2018-01-01T04:19:04.423Z,97003.21
2018-01-01T04:21:31.923Z,96987.47
2018-01-01T04:23:59.563Z,97000.53
2018-01-01T04:26:27.082Z,97007.00
2018-01-01T04:28:54.812Z,97008.96
2018-01-01T04:31:22.514Z,97004.47
2018-01-01T04:33:53.268Z,97003.95
2018-01-01T04:36:25.925Z,97011.44
2018-01-01T04:38:53.741Z,97009.09
2018-01-01T04:43:56.199Z,97019.13
2018-01-01T04:46:25.320Z,97012.77
2018-01-01T04:48:52.955Z,97015.88
2018-01-01T04:51:21.309Z,97023.09
2018-01-01T04:53:52.449Z,97024.00
2018-01-01T04:56:20.981Z,97023.80
2018-01-01T04:58:50.178Z,97037.61
2018-01-01T05:01:17.785Z,97045.55
2018-01-01T05:03:45.493Z,97047.41
2018-01-01T05:06:13.037Z,97040.52
2018-01-01T05:08:41.511Z,97038.03
2018-01-01T05:11:09.025Z,97047.97
2018-01-01T05:13:36.750Z,97038.83
2018-01-01T05:16:04.642Z,97043.08
2018-01-01T05:18:32.214Z,97045.49
2018-01-01T05:20:59.845Z,97050.33
2018-01-01T05:23:27.689Z,97045.89
2018-01-01T05:25:55.364Z,97043.84
2018-01-01T05:28:22.924Z,97047.08
2018-01-01T05:30:51.443Z,97051.73
2018-01-01T05:33:19.198Z,97048.80
2018-01-01T05:35:46.740Z,97045.31
2018-01-01T05:38:14.318Z,97052.41
2018-01-01T05:40:41.783Z,97061.56
2018-01-01T05:43:09.291Z,97060.14
2018-01-01T05:45:36.866Z,97058.61
2018-01-01T05:48:04.701Z,97059.63
2018-01-01T05:50:32.259Z,97058.00
2018-01-01T05:52:59.790Z,97062.39
2018-01-01T05:55:27.684Z,97052.36
2018-01-01T05:57:55.523Z,97070.37
2018-01-01T06:00:24.781Z,97070.23
2018-01-01T06:02:53.234Z,97072.16
2018-01-01T06:05:22.493Z,97083.13
2018-01-01T06:10:40.232Z,97085.39
2018-01-01T06:13:15.453Z,97079.23
2018-01-01T06:15:43.171Z,97088.91
2018-01-01T06:18:10.719Z,97094.26
2018-01-01T06:20:38.383Z,97096.64
2018-01-01T06:23:06.980Z,97101.86
2018-01-01T06:25:34.610Z,97133.34
2018-01-01T06:28:04.592Z,97112.48
2018-01-01T06:30:38.142Z,97107.55
2018-01-01T06:33:06.960Z,97118.31
2018-01-01T06:35:44.727Z,97131.54
2018-01-01T06:38:19.995Z,97136.37
2018-01-01T06:41:00.619Z,97142.91
2018-01-01T06:43:28.317Z,97146.73
2018-01-01T06:45:55.873Z,97145.64
2018-01-01T06:48:25.522Z,97144.27
2018-01-01T06:50:54.168Z,97148.71
2018-01-01T06:53:22.523Z,97143.87
2018-01-01T06:55:50.841Z,97143.00
2018-01-01T06:58:18.642Z,97140.45
2018-01-01T07:00:46.210Z,97137.34
2018-01-01T07:03:15.690Z,97136.63
2018-01-01T07:05:43.371Z,97140.39
2018-01-01T07:08:10.828Z,97140.00
2018-01-01T07:10:38.307Z,97136.04
2018-01-01T07:13:06.029Z,97135.98
2018-01-01T07:15:33.483Z,97142.03
2018-01-01T07:18:00.982Z,97139.62
2018-01-01T07:20:28.467Z,97147.52
2018-01-01T07:22:56.719Z,97126.63
2018-01-01T07:25:24.611Z,97144.39
2018-01-01T07:27:52.206Z,97147.49
2018-01-01T07:30:19.727Z,97148.16
2018-01-01T07:32:47.344Z,97148.10
2018-01-01T07:35:14.886Z,97143.48
2018-01-01T07:37:42.391Z,97143.83
2018-01-01T07:40:09.896Z,97154.41
2018-01-01T07:42:37.673Z,97158.00
2018-01-01T07:45:05.142Z,97152.00
2018-01-01T07:47:34.642Z,97153.20
2018-01-01T07:50:03.713Z,97167.19
2018-01-01T07:52:32.574Z,97169.88
2018-01-01T07:55:04.960Z,97167.32
2018-01-01T07:57:36.938Z,97169.34
2018-01-01T08:00:09.834Z,97173.77
2018-01-01T08:02:37.470Z,97185.90
2018-01-01T08:05:07.393Z,97204.05
2018-01-01T08:07:34.983Z,97184.81
2018-01-01T08:10:02.723Z,97194.66
2018-01-01T08:12:30.505Z,97198.49
2018-01-01T08:14:58.958Z,97198.92
2018-01-01T08:17:35.216Z,97190.70
2018-01-01T08:20:04.052Z,97183.88
2018-01-01T08:22:31.731Z,97189.37
2018-01-01T08:24:59.409Z,97198.98
2018-01-01T08:27:30.367Z,97202.70
2018-01-01T08:29:59.672Z,97207.88
2018-01-01T08:32:28.340Z,97218.08
2018-01-01T08:34:56.263Z,97216.34
2018-01-01T08:37:23.815Z,97215.02
2018-01-01T08:39:51.499Z,97213.70
2018-01-01T08:42:19.130Z,97219.70
2018-01-01T08:44:46.708Z,97216.52
2018-01-01T08:47:14.629Z,97218.55
2018-01-01T08:49:42.326Z,97210.70
2018-01-01T08:52:11.163Z,97209.64
2018-01-01T08:54:40.656Z,97217.60
2018-01-01T08:57:08.315Z,97213.30
2018-01-01T08:59:41.278Z,97212.83
2018-01-01T09:02:09.890Z,97210.80
2018-01-01T09:04:37.749Z,97206.26
2018-01-01T09:07:08.584Z,97207.11
2018-01-01T09:09:36.343Z,97205.06
2018-01-01T09:12:04.799Z,97210.13
2018-01-01T09:14:32.497Z,97210.33
2018-01-01T09:17:00.959Z,97219.34
2018-01-01T09:19:29.853Z,97227.05
2018-01-01T09:21:59.611Z,97245.75
2018-01-01T09:24:32.606Z,97254.54
2018-01-01T09:27:03.423Z,97265.83
2018-01-01T09:29:32.399Z,97266.75
2018-01-01T09:32:02.666Z,97257.01
2018-01-01T09:34:30.860Z,97276.84
2018-01-01T09:36:58.832Z,97262.48
2018-01-01T09:39:26.514Z,97264.69
2018-01-01T09:41:54.403Z,97269.98
2018-01-01T09:44:21.953Z,97274.75
2018-01-01T09:46:49.683Z,97257.09
2018-01-01T09:49:17.399Z,97259.80
2018-01-01T09:51:46.927Z,97238.59
2018-01-01T09:54:14.494Z,97248.90
2018-01-01T09:56:43.232Z,97256.33
2018-01-01T10:03:07.585Z,97235.92
2018-01-01T10:05:35.202Z,97235.20
2018-01-01T10:08:08.240Z,97239.06
2018-01-01T10:10:45.616Z,97244.69
2018-01-01T10:13:14.261Z,97243.88
2018-01-01T10:15:41.901Z,97225.83
2018-01-01T10:18:11.288Z,97210.20
2018-01-01T10:20:39.173Z,97206.27
2018-01-01T10:23:07.266Z,97183.89
2018-01-01T10:25:35.529Z,97207.77
2018-01-01T10:28:27.282Z,97206.70
2018-01-01T10:30:57.884Z,97191.47
2018-01-01T10:33:25.520Z,97187.00
2018-01-01T10:36:15.081Z,97187.50
2018-01-01T10:38:45.009Z,97185.90
2018-01-01T10:41:17.578Z,97180.61
2018-01-01T10:46:53.160Z,97175.58
2018-01-01T10:49:22.599Z,97161.09
2018-01-01T10:51:53.915Z,97149.98
2018-01-01T10:54:21.651Z,97150.09
2018-01-01T10:56:49.229Z,97146.57
2018-01-01T10:59:16.966Z,97130.88
2018-01-01T11:01:46.322Z,97136.86
2018-01-01T11:07:10.736Z,97137.06
2018-01-01T11:09:39.277Z,97130.08
2018-01-01T11:12:06.762Z,97118.25
2018-01-01T11:14:34.697Z,97108.14
2018-01-01T11:17:02.665Z,97100.91
2018-01-01T11:28:07.232Z,97074.02
2018-01-01T11:30:47.272Z,97060.60
2018-01-01T11:33:16.729Z,97056.11
2018-01-01T11:39:03.109Z,97047.25
2018-01-01T11:41:31.564Z,97036.27
2018-01-01T11:44:10.675Z,97034.29
2018-01-01T11:49:45.678Z,97026.08
2018-01-01T11:52:21.330Z,96991.08
2018-01-01T11:54:53.243Z,96999.72
2018-01-01T12:03:07.431Z,96984.65
2018-01-01T12:05:35.262Z,96984.55
2018-01-01T12:08:04.091Z,96978.81
2018-01-01T12:10:32.602Z,96972.94
2018-01-01T12:13:00.461Z,96953.28
2018-01-01T12:15:30.994Z,96947.58
2018-01-01T12:18:01.395Z,96936.13
2018-01-01T12:20:28.914Z,96917.02
2018-01-01T12:22:56.380Z,96914.27
2018-01-01T12:25:24.617Z,96905.02
2018-01-01T12:27:52.759Z,96882.80
2018-01-01T12:30:23.053Z,96878.17
2018-01-01T12:32:51.977Z,96865.84
2018-01-01T12:37:54.395Z,96856.86
2018-01-01T12:40:37.215Z,96849.39
2018-01-01T12:43:13.068Z,96845.34
2018-01-01T13:11:04.049Z,96780.63
2018-01-01T13:13:34.291Z,96776.02
2018-01-01T13:16:02.730Z,96766.73
2018-01-01T13:18:30.553Z,96756.44
2018-01-01T13:26:56.763Z,96721.81
2018-01-01T13:29:24.696Z,96712.98
2018-01-01T13:31:53.373Z,96712.69
2018-01-01T13:34:21.125Z,96701.99
2018-01-01T13:36:48.660Z,96702.81
2018-01-01T13:39:16.815Z,96699.32
2018-01-01T13:41:44.394Z,96690.73
2018-01-01T13:44:12.110Z,96696.42
2018-01-01T13:46:39.949Z,96681.23
2018-01-01T13:49:11.226Z,96679.84
2018-01-01T13:51:39.754Z,96672.28
2018-01-01T13:54:07.599Z,96670.70
2018-01-01T13:59:44.835Z,96669.75
2018-01-01T14:02:14.984Z,96666.91
2018-01-01T14:04:51.227Z,96664.30
2018-01-01T14:07:19.095Z,96655.30
2018-01-01T14:09:49.905Z,96646.29
2018-01-01T14:12:17.601Z,96631.63
2018-01-01T14:14:45.327Z,96630.90
2018-01-01T14:17:13.474Z,96625.66
2018-01-01T14:19:41.048Z,96635.12
2018-01-01T14:22:13.449Z,96633.94
2018-01-01T14:24:46.869Z,96630.05
2018-01-01T14:27:14.798Z,96623.92
2018-01-01T14:29:42.561Z,96625.47
2018-01-01T14:32:12.276Z,96623.53
2018-01-01T14:34:41.169Z,96616.77
2018-01-01T14:37:08.700Z,96616.39
2018-01-01T14:39:46.419Z,96601.05
2018-01-01T14:42:16.836Z,96603.93
2018-01-01T14:44:59.272Z,96590.50
2018-01-01T14:47:31.243Z,96588.47
2018-01-01T14:50:34.017Z,96595.45
2018-01-01T15:01:26.544Z,96557.59
2018-01-01T15:04:16.049Z,96545.92
2018-01-01T15:06:43.622Z,96540.66
2018-01-01T15:09:12.394Z,96536.30
2018-01-01T15:11:40.046Z,96530.80
2018-01-01T15:14:09.624Z,96526.84
2018-01-01T15:16:37.122Z,96519.74
2018-01-01T15:19:04.644Z,96507.86
2018-01-01T15:21:32.163Z,96502.02
2018-01-01T15:23:59.859Z,96493.59
2018-01-01T15:26:27.350Z,96475.61
2018-01-01T15:28:54.830Z,96469.31
2018-01-01T15:31:22.310Z,96461.25
2018-01-01T15:33:50.207Z,96449.86
2018-01-01T15:36:17.734Z,96437.22
2018-01-01T15:38:45.737Z,96435.17
2018-01-01T15:41:13.286Z,96434.87
2018-01-01T15:43:40.843Z,96422.97
2018-01-01T15:46:08.518Z,96417.06
2018-01-01T15:48:36.072Z,96419.34
2018-01-01T15:51:03.622Z,96405.10
2018-01-01T15:53:31.158Z,96403.97
2018-01-01T15:55:58.722Z,96387.72
2018-01-01T15:58:26.392Z,96374.10
2018-01-01T16:00:53.880Z,96374.59
2018-01-01T16:03:21.548Z,96372.16
2018-01-01T16:05:49.503Z,96356.00
2018-01-01T16:08:17.454Z,96357.12
2018-01-01T16:10:45.101Z,96353.82
2018-01-01T16:13:12.655Z,96343.63
2018-01-01T16:15:40.211Z,96349.22
2018-01-01T16:18:08.292Z,96330.72
2018-01-01T16:20:35.825Z,96328.07
2018-01-01T16:23:03.344Z,96316.86
2018-01-01T16:25:31.148Z,96305.14
2018-01-01T16:27:59.086Z,96303.83
2018-01-01T16:30:26.775Z,96292.30
2018-01-01T16:32:54.251Z,96292.56
2018-01-01T16:35:22.152Z,96292.89
2018-01-01T16:37:49.736Z,96283.41
2018-01-01T16:40:17.282Z,96287.43
2018-01-01T16:42:45.691Z,96283.56
2018-01-01T16:45:13.163Z,96287.45
2018-01-01T16:47:40.667Z,96279.28
2018-01-01T16:50:08.352Z,96280.47
2018-01-01T16:52:35.845Z,96275.32
2018-01-01T16:55:03.325Z,96277.66
2018-01-01T16:57:30.848Z,96268.91
2018-01-01T16:59:58.482Z,96265.10
2018-01-01T17:02:26.292Z,96263.41
2018-01-01T17:07:58.769Z,96247.41
2018-01-01T17:10:42.787Z,96239.07
2018-01-01T18:39:24.931Z,96253.88
2018-01-01T18:41:52.444Z,96258.84
2018-01-01T18:44:20.006Z,96239.78
2018-01-01T18:46:52.614Z,96241.55
2018-01-01T18:49:39.462Z,96249.48
2018-01-01T18:52:14.190Z,96177.16
2018-01-01T19:09:15.189Z,96253.09
2018-01-01T19:11:43.040Z,96246.80
2018-01-01T19:14:10.624Z,96241.84
2018-01-01T19:16:39.420Z,96244.82
2018-01-01T19:19:08.179Z,96250.68
2018-01-01T19:21:36.253Z,96247.70
2018-01-01T19:24:05.261Z,96252.61
2018-01-01T19:26:33.445Z,96247.20
2018-01-01T19:29:03.250Z,96252.50
2018-01-01T19:31:34.900Z,96253.45
2018-01-01T19:34:02.852Z,96260.45
2018-01-01T19:39:04.307Z,96257.69
2018-01-01T19:41:32.950Z,96269.14
2018-01-01T19:44:01.145Z,96257.30
2018-01-01T19:46:30.575Z,96257.61
2018-01-01T19:49:00.686Z,96251.08
2018-01-01T19:51:33.058Z,96243.72
2018-01-01T19:54:02.218Z,96231.69
2018-01-01T19:56:31.658Z,96223.75
2018-01-01T19:58:59.584Z,96219.73
2018-01-01T20:01:27.482Z,96218.32
2018-01-01T20:03:55.026Z,96217.62
2018-01-01T20:06:24.383Z,96215.80
2018-01-01T20:08:52.102Z,96213.77
2018-01-01T20:11:19.759Z,96211.93
2018-01-01T20:13:47.594Z,96225.01
2018-01-01T20:16:15.287Z,96215.88
2018-01-01T20:18:43.117Z,96224.05
2018-01-01T20:21:10.710Z,96222.13
2018-01-01T20:23:38.389Z,96224.41
2018-01-01T20:26:05.957Z,96221.69
2018-01-01T20:28:33.713Z,96217.92
2018-01-01T20:31:01.439Z,96231.53
2018-01-01T20:33:28.962Z,96232.42
2018-01-01T20:35:56.640Z,96237.88
2018-01-01T20:38:24.190Z,96228.22
2018-01-01T20:40:51.721Z,96232.08
2018-01-01T20:43:19.294Z,96242.14
2018-01-01T20:45:46.819Z,96241.98
2018-01-01T20:48:14.398Z,96242.41
2018-01-01T20:50:41.883Z,96246.42
2018-01-01T20:53:09.618Z,96253.91
2018-01-01T20:55:37.497Z,96239.35
2018-01-01T20:58:07.139Z,96157.30
2018-01-01T21:00:39.022Z,96233.72
2018-01-01T21:03:07.054Z,96246.89
2018-01-01T21:05:38.228Z,96255.30
2018-01-01T21:08:10.787Z,96249.72
2018-01-01T21:10:39.853Z,96260.11
2018-01-01T21:13:07.712Z,96262.38
2018-01-01T21:15:44.390Z,96275.45
2018-01-01T21:18:18.062Z,96287.88
2018-01-01T21:20:45.865Z,96276.58
2018-01-01T21:23:20.954Z,96292.82
2018-01-01T21:25:49.691Z,96288.56
2018-01-01T21:28:24.273Z,96280.73
2018-01-01T21:30:51.975Z,96302.22
2018-01-01T21:33:20.356Z,96304.16
2018-01-01T21:35:48.032Z,96322.61
2018-01-01T21:38:15.668Z,96321.02
2018-01-01T21:40:44.339Z,96331.75
2018-01-01T21:43:13.089Z,96325.24
2018-01-01T21:45:41.139Z,96336.77
2018-01-01T21:48:08.732Z,96334.83
2018-01-01T21:50:37.469Z,96343.39
2018-01-01T21:53:06.323Z,96352.98
2018-01-01T21:55:35.797Z,96357.94
2018-01-01T21:58:03.613Z,96358.78
2018-01-01T22:00:31.732Z,96354.88
2018-01-01T22:02:59.723Z,96364.23
2018-01-01T22:05:28.243Z,96374.25
2018-01-01T22:07:55.919Z,96363.77
2018-01-01T22:10:23.794Z,96371.75
2018-01-01T22:12:51.386Z,96390.72
2018-01-01T22:15:25.111Z,96398.85
2018-01-01T22:18:03.781Z,96400.34
2018-01-01T22:20:31.350Z,96406.32
2018-01-01T22:22:59.899Z,96398.84
2018-01-01T22:25:29.024Z,96409.77
2018-01-01T22:27:59.309Z,96417.29
2018-01-01T22:30:32.102Z,96442.34
2018-01-01T22:33:00.623Z,96411.55
2018-01-01T22:35:28.093Z,96442.83
2018-01-01T22:37:57.311Z,96460.42
2018-01-01T22:40:24.962Z,96460.32
2018-01-01T22:42:52.792Z,96480.76
2018-01-01T22:45:21.889Z,96494.27
2018-01-01T22:47:50.040Z,96504.38
2018-01-01T22:50:17.895Z,96508.36
2018-01-01T22:52:46.899Z,96505.16
2018-01-01T22:55:15.400Z,96535.57
2018-01-01T22:57:42.947Z,96547.58
2018-01-01T23:00:10.468Z,96545.42
2018-01-01T23:02:41.682Z,96565.11
2018-01-01T23:05:10.059Z,96571.55
2018-01-01T23:07:39.318Z,96578.84
2018-01-01T23:10:09.574Z,96511.66
2018-01-01T23:12:37.132Z,96585.70
2018-01-01T23:15:04.697Z,96598.42
2018-01-01T23:17:32.215Z,96595.23
2018-01-01T23:19:59.999Z,96590.42
2018-01-01T23:22:27.568Z,96630.18
2018-01-01T23:24:55.192Z,96639.66
2018-01-01T23:27:23.927Z,96654.53
2018-01-01T23:29:53.060Z,96640.03
2018-01-01T23:32:22.103Z,96647.81
2018-01-01T23:34:50.444Z,96656.38
2018-01-01T23:37:18.755Z,96661.70
2018-01-01T23:39:46.428Z,96665.45
2018-01-01T23:42:15.520Z,96668.87
2018-01-01T23:44:44.046Z,96679.51
2018-01-01T23:47:13.190Z,96690.95
2018-01-01T23:49:42.290Z,96688.65
2018-01-01T23:52:11.429Z,96690.98
2018-01-01T23:54:41.928Z,96703.95
2018-01-01T23:57:12.069Z,96714.22
2018-01-01T23:59:42.014Z,96718.42
